sensor_id;sensor_type;location;lat;lon;timestamp;P1;P2;P0
57289;PMS5003;43523;53.022;-1.178;2023-04-09T00:00:36;25;24;
57289;PMS5003;43523;53.022;-1.178;2023-04-09T00:01:39;31;26;
57289;PMS5003;43523;53.022;-1.178;2023-04-09T00:02:41;35;33;
57289;PMS5003;43523;53.022;-1.178;2023-04-09T00:03:43;34;30;
57289;PMS5003;43523;53.022;-1.178;2023-04-09T00:04:45;30;27;
57289;PMS5003;43523;53.022;-1.178;2023-04-09T00:05:47;36;30;
57289;PMS5003;43523;53.022;-1.178;2023-04-09T00:06:49;31;26;
57289;PMS5003;43523;53.022;-1.178;2023-04-09T00:07:52;37;26;
57289;PMS5003;43523;53.022;-1.178;2023-04-09T00:08:54;30;27;
57289;PMS5003;43523;53.022;-1.178;2023-04-09T00:09:57;26;22;
57289;PMS5003;43523;53.022;-1.178;2023-04-09T00:10:59;31;26;
57289;PMS5003;43523;53.022;-1.178;2023-04-09T00:12:01;38;29;
57289;PMS5003;43523;53.022;-1.178;2023-04-09T00:13:04;31;28;
57289;PMS5003;43523;53.022;-1.178;2023-04-09T00:14:06;34;31;
57289;PMS5003;43523;53.022;-1.178;2023-04-09T00:15:09;30;28;
57289;PMS5003;43523;53.022;-1.178;2023-04-09T00:16:11;35;32;
57289;PMS5003;43523;53.022;-1.178;2023-04-09T00:17:14;35;32;
57289;PMS5003;43523;53.022;-1.178;2023-04-09T00:18:16;33;30;
57289;PMS5003;43523;53.022;-1.178;2023-04-09T00:19:19;37;30;
57289;PMS5003;43523;53.022;-1.178;2023-04-09T00:20:21;44;36;
57289;PMS5003;43523;53.022;-1.178;2023-04-09T00:21:23;35;30;
57289;PMS5003;43523;53.022;-1.178;2023-04-09T00:22:26;36;32;
57289;PMS5003;43523;53.022;-1.178;2023-04-09T00:23:28;44;34;
57289;PMS5003;43523;53.022;-1.178;2023-04-09T00:24:30;43;38;
57289;PMS5003;43523;53.022;-1.178;2023-04-09T00:25:33;41;37;
57289;PMS5003;43523;53.022;-1.178;2023-04-09T00:26:35;46;42;
57289;PMS5003;43523;53.022;-1.178;2023-04-09T00:27:37;46;38;
57289;PMS5003;43523;53.022;-1.178;2023-04-09T00:28:40;49;43;
57289;PMS5003;43523;53.022;-1.178;2023-04-09T00:29:43;42;34;
57289;PMS5003;43523;53.022;-1.178;2023-04-09T00:30:45;42;38;
57289;PMS5003;43523;53.022;-1.178;2023-04-09T00:31:48;45;38;
57289;PMS5003;43523;53.022;-1.178;2023-04-09T00:32:50;44;37;
57289;PMS5003;43523;53.022;-1.178;2023-04-09T00:33:52;51;40;
57289;PMS5003;43523;53.022;-1.178;2023-04-09T00:34:54;53;41;
57289;PMS5003;43523;53.022;-1.178;2023-04-09T00:35:57;49;44;
57289;PMS5003;43523;53.022;-1.178;2023-04-09T00:37:00;49;44;
57289;PMS5003;43523;53.022;-1.178;2023-04-09T00:38:02;58;50;
57289;PMS5003;43523;53.022;-1.178;2023-04-09T00:39:05;58;46;
57289;PMS5003;43523;53.022;-1.178;2023-04-09T00:40:07;59;49;
57289;PMS5003;43523;53.022;-1.178;2023-04-09T00:41:10;64;51;
57289;PMS5003;43523;53.022;-1.178;2023-04-09T00:42:12;64;48;
57289;PMS5003;43523;53.022;-1.178;2023-04-09T00:43:14;59;50;
57289;PMS5003;43523;53.022;-1.178;2023-04-09T00:44:16;60;48;
57289;PMS5003;43523;53.022;-1.178;2023-04-09T00:45:19;72;56;
57289;PMS5003;43523;53.022;-1.178;2023-04-09T00:46:21;64;56;
57289;PMS5003;43523;53.022;-1.178;2023-04-09T00:47:23;69;53;
57289;PMS5003;43523;53.022;-1.178;2023-04-09T00:48:26;56;47;
57289;PMS5003;43523;53.022;-1.178;2023-04-09T00:49:28;66;50;
57289;PMS5003;43523;53.022;-1.178;2023-04-09T00:50:31;75;57;
57289;PMS5003;43523;53.022;-1.178;2023-04-09T00:51:34;75;61;
57289;PMS5003;43523;53.022;-1.178;2023-04-09T00:52:37;60;53;
57289;PMS5003;43523;53.022;-1.178;2023-04-09T00:53:40;76;60;
57289;PMS5003;43523;53.022;-1.178;2023-04-09T00:54:43;72;51;
57289;PMS5003;43523;53.022;-1.178;2023-04-09T00:55:45;60;46;
57289;PMS5003;43523;53.022;-1.178;2023-04-09T00:56:47;54;48;
57289;PMS5003;43523;53.022;-1.178;2023-04-09T00:57:49;59;44;
57289;PMS5003;43523;53.022;-1.178;2023-04-09T00:58:51;60;48;
57289;PMS5003;43523;53.022;-1.178;2023-04-09T00:59:55;56;47;
57289;PMS5003;43523;53.022;-1.178;2023-04-09T01:00:57;55;46;
57289;PMS5003;43523;53.022;-1.178;2023-04-09T01:01:59;51;45;
57289;PMS5003;43523;53.022;-1.178;2023-04-09T01:03:01;51;45;
57289;PMS5003;43523;53.022;-1.178;2023-04-09T01:04:06;63;46;
57289;PMS5003;43523;53.022;-1.178;2023-04-09T01:05:08;58;51;
57289;PMS5003;43523;53.022;-1.178;2023-04-09T01:06:13;49;45;
57289;PMS5003;43523;53.022;-1.178;2023-04-09T01:07:25;55;44;
57289;PMS5003;43523;53.022;-1.178;2023-04-09T01:08:37;58;47;
57289;PMS5003;43523;53.022;-1.178;2023-04-09T01:09:47;58;49;
57289;PMS5003;43523;53.022;-1.178;2023-04-09T01:10:56;59;49;
57289;PMS5003;43523;53.022;-1.178;2023-04-09T01:12:09;57;45;
57289;PMS5003;43523;53.022;-1.178;2023-04-09T01:13:22;61;50;
57289;PMS5003;43523;53.022;-1.178;2023-04-09T01:14:30;62;52;
57289;PMS5003;43523;53.022;-1.178;2023-04-09T01:15:41;61;47;
57289;PMS5003;43523;53.022;-1.178;2023-04-09T01:16:50;64;54;
57289;PMS5003;43523;53.022;-1.178;2023-04-09T01:17:58;64;52;
57289;PMS5003;43523;53.022;-1.178;2023-04-09T01:19:08;52;48;
57289;PMS5003;43523;53.022;-1.178;2023-04-09T01:20:21;57;49;
57289;PMS5003;43523;53.022;-1.178;2023-04-09T01:21:30;72;56;
57289;PMS5003;43523;53.022;-1.178;2023-04-09T01:22:39;67;54;
57289;PMS5003;43523;53.022;-1.178;2023-04-09T01:23:56;60;50;
57289;PMS5003;43523;53.022;-1.178;2023-04-09T01:25:05;69;53;
57289;PMS5003;43523;53.022;-1.178;2023-04-09T01:26:17;62;56;
57289;PMS5003;43523;53.022;-1.178;2023-04-09T01:27:27;69;54;
57289;PMS5003;43523;53.022;-1.178;2023-04-09T01:28:40;63;51;
57289;PMS5003;43523;53.022;-1.178;2023-04-09T01:29:46;62;57;
57289;PMS5003;43523;53.022;-1.178;2023-04-09T01:30:52;75;63;
57289;PMS5003;43523;53.022;-1.178;2023-04-09T01:31:59;68;54;
57289;PMS5003;43523;53.022;-1.178;2023-04-09T01:33:03;63;57;
57289;PMS5003;43523;53.022;-1.178;2023-04-09T01:34:06;70;56;
57289;PMS5003;43523;53.022;-1.178;2023-04-09T01:35:11;63;53;
57289;PMS5003;43523;53.022;-1.178;2023-04-09T01:36:15;58;50;
57289;PMS5003;43523;53.022;-1.178;2023-04-09T01:37:18;59;48;
57289;PMS5003;43523;53.022;-1.178;2023-04-09T01:38:21;71;52;
57289;PMS5003;43523;53.022;-1.178;2023-04-09T01:39:25;64;60;
57289;PMS5003;43523;53.022;-1.178;2023-04-09T01:40:29;60;51;
57289;PMS5003;43523;53.022;-1.178;2023-04-09T01:41:31;58;53;
57289;PMS5003;43523;53.022;-1.178;2023-04-09T01:42:36;79;58;
57289;PMS5003;43523;53.022;-1.178;2023-04-09T01:43:39;59;48;
57289;PMS5003;43523;53.022;-1.178;2023-04-09T01:44:43;65;51;
57289;PMS5003;43523;53.022;-1.178;2023-04-09T01:45:47;62;48;
57289;PMS5003;43523;53.022;-1.178;2023-04-09T01:46:51;58;49;
57289;PMS5003;43523;53.022;-1.178;2023-04-09T01:47:55;61;47;
57289;PMS5003;43523;53.022;-1.178;2023-04-09T01:48:58;69;54;
57289;PMS5003;43523;53.022;-1.178;2023-04-09T01:50:01;70;53;
57289;PMS5003;43523;53.022;-1.178;2023-04-09T01:51:04;55;49;
57289;PMS5003;43523;53.022;-1.178;2023-04-09T01:52:07;73;58;
57289;PMS5003;43523;53.022;-1.178;2023-04-09T01:53:11;64;53;
57289;PMS5003;43523;53.022;-1.178;2023-04-09T01:54:14;75;62;
57289;PMS5003;43523;53.022;-1.178;2023-04-09T01:55:17;69;51;
57289;PMS5003;43523;53.022;-1.178;2023-04-09T01:56:20;62;53;
57289;PMS5003;43523;53.022;-1.178;2023-04-09T01:57:23;62;53;
57289;PMS5003;43523;53.022;-1.178;2023-04-09T01:58:26;63;56;
57289;PMS5003;43523;53.022;-1.178;2023-04-09T01:59:29;66;55;
57289;PMS5003;43523;53.022;-1.178;2023-04-09T02:00:33;58;53;
57289;PMS5003;43523;53.022;-1.178;2023-04-09T02:01:40;64;53;
57289;PMS5003;43523;53.022;-1.178;2023-04-09T02:02:48;74;60;
57289;PMS5003;43523;53.022;-1.178;2023-04-09T02:03:58;60;49;
57289;PMS5003;43523;53.022;-1.178;2023-04-09T02:05:03;65;56;
57289;PMS5003;43523;53.022;-1.178;2023-04-09T02:06:12;63;57;
57289;PMS5003;43523;53.022;-1.178;2023-04-09T02:08:38;70;54;
57289;PMS5003;43523;53.022;-1.178;2023-04-09T02:09:42;63;52;
57289;PMS5003;43523;53.022;-1.178;2023-04-09T02:10:48;57;51;
57289;PMS5003;43523;53.022;-1.178;2023-04-09T02:11:52;63;53;
57289;PMS5003;43523;53.022;-1.178;2023-04-09T02:12:59;65;54;
57289;PMS5003;43523;53.022;-1.178;2023-04-09T02:14:03;60;53;
57289;PMS5003;43523;53.022;-1.178;2023-04-09T02:15:07;53;48;
57289;PMS5003;43523;53.022;-1.178;2023-04-09T02:16:11;65;58;
57289;PMS5003;43523;53.022;-1.178;2023-04-09T02:17:16;63;53;
57289;PMS5003;43523;53.022;-1.178;2023-04-09T02:18:20;72;57;
57289;PMS5003;43523;53.022;-1.178;2023-04-09T02:19:23;64;49;
57289;PMS5003;43523;53.022;-1.178;2023-04-09T02:20:25;65;47;
57289;PMS5003;43523;53.022;-1.178;2023-04-09T02:21:28;58;47;
57289;PMS5003;43523;53.022;-1.178;2023-04-09T02:22:30;56;47;
57289;PMS5003;43523;53.022;-1.178;2023-04-09T02:23:32;70;53;
57289;PMS5003;43523;53.022;-1.178;2023-04-09T02:24:35;66;50;
57289;PMS5003;43523;53.022;-1.178;2023-04-09T02:25:37;57;48;
57289;PMS5003;43523;53.022;-1.178;2023-04-09T02:26:39;63;53;
57289;PMS5003;43523;53.022;-1.178;2023-04-09T02:27:41;62;51;
57289;PMS5003;43523;53.022;-1.178;2023-04-09T02:28:44;56;49;
57289;PMS5003;43523;53.022;-1.178;2023-04-09T02:29:47;59;51;
57289;PMS5003;43523;53.022;-1.178;2023-04-09T02:30:49;65;50;
57289;PMS5003;43523;53.022;-1.178;2023-04-09T02:31:51;62;48;
57289;PMS5003;43523;53.022;-1.178;2023-04-09T02:32:53;55;44;
57289;PMS5003;43523;53.022;-1.178;2023-04-09T02:33:55;60;53;
57289;PMS5003;43523;53.022;-1.178;2023-04-09T02:34:57;66;58;
57289;PMS5003;43523;53.022;-1.178;2023-04-09T02:35:59;59;50;
57289;PMS5003;43523;53.022;-1.178;2023-04-09T02:37:02;68;47;
57289;PMS5003;43523;53.022;-1.178;2023-04-09T02:38:04;54;50;
57289;PMS5003;43523;53.022;-1.178;2023-04-09T02:39:06;61;48;
57289;PMS5003;43523;53.022;-1.178;2023-04-09T02:40:08;60;47;
57289;PMS5003;43523;53.022;-1.178;2023-04-09T02:41:12;61;48;
57289;PMS5003;43523;53.022;-1.178;2023-04-09T02:42:14;64;50;
57289;PMS5003;43523;53.022;-1.178;2023-04-09T02:43:17;50;41;
57289;PMS5003;43523;53.022;-1.178;2023-04-09T02:44:19;66;49;
57289;PMS5003;43523;53.022;-1.178;2023-04-09T02:45:21;66;56;
57289;PMS5003;43523;53.022;-1.178;2023-04-09T02:46:23;73;59;
57289;PMS5003;43523;53.022;-1.178;2023-04-09T02:47:25;61;46;
57289;PMS5003;43523;53.022;-1.178;2023-04-09T02:48:28;62;53;
57289;PMS5003;43523;53.022;-1.178;2023-04-09T02:49:30;70;51;
57289;PMS5003;43523;53.022;-1.178;2023-04-09T02:50:33;66;52;
57289;PMS5003;43523;53.022;-1.178;2023-04-09T02:51:35;59;51;
57289;PMS5003;43523;53.022;-1.178;2023-04-09T02:52:37;60;49;
57289;PMS5003;43523;53.022;-1.178;2023-04-09T02:53:40;61;52;
57289;PMS5003;43523;53.022;-1.178;2023-04-09T02:54:43;62;48;
57289;PMS5003;43523;53.022;-1.178;2023-04-09T02:55:46;51;41;
57289;PMS5003;43523;53.022;-1.178;2023-04-09T02:56:48;64;53;
57289;PMS5003;43523;53.022;-1.178;2023-04-09T02:57:51;59;48;
57289;PMS5003;43523;53.022;-1.178;2023-04-09T02:58:53;58;50;
57289;PMS5003;43523;53.022;-1.178;2023-04-09T02:59:55;60;45;
57289;PMS5003;43523;53.022;-1.178;2023-04-09T03:00:58;55;46;
57289;PMS5003;43523;53.022;-1.178;2023-04-09T03:02:00;55;39;
57289;PMS5003;43523;53.022;-1.178;2023-04-09T03:03:02;52;44;
57289;PMS5003;43523;53.022;-1.178;2023-04-09T03:04:05;58;53;
57289;PMS5003;43523;53.022;-1.178;2023-04-09T03:05:07;58;46;
57289;PMS5003;43523;53.022;-1.178;2023-04-09T03:06:10;53;51;
57289;PMS5003;43523;53.022;-1.178;2023-04-09T03:07:13;58;46;
57289;PMS5003;43523;53.022;-1.178;2023-04-09T03:08:16;59;48;
57289;PMS5003;43523;53.022;-1.178;2023-04-09T03:09:18;55;43;
57289;PMS5003;43523;53.022;-1.178;2023-04-09T03:10:20;65;53;
57289;PMS5003;43523;53.022;-1.178;2023-04-09T03:11:22;54;45;
57289;PMS5003;43523;53.022;-1.178;2023-04-09T03:12:24;58;49;
57289;PMS5003;43523;53.022;-1.178;2023-04-09T03:13:27;56;44;
57289;PMS5003;43523;53.022;-1.178;2023-04-09T03:14:29;53;46;
57289;PMS5003;43523;53.022;-1.178;2023-04-09T03:15:31;53;41;
57289;PMS5003;43523;53.022;-1.178;2023-04-09T03:16:33;62;49;
57289;PMS5003;43523;53.022;-1.178;2023-04-09T03:17:35;47;42;
57289;PMS5003;43523;53.022;-1.178;2023-04-09T03:18:38;58;49;
57289;PMS5003;43523;53.022;-1.178;2023-04-09T03:19:40;60;54;
57289;PMS5003;43523;53.022;-1.178;2023-04-09T03:20:43;56;48;
57289;PMS5003;43523;53.022;-1.178;2023-04-09T03:21:46;49;43;
57289;PMS5003;43523;53.022;-1.178;2023-04-09T03:22:48;52;44;
57289;PMS5003;43523;53.022;-1.178;2023-04-09T03:23:50;48;46;
57289;PMS5003;43523;53.022;-1.178;2023-04-09T03:24:52;50;43;
57289;PMS5003;43523;53.022;-1.178;2023-04-09T03:25:59;52;44;
57289;PMS5003;43523;53.022;-1.178;2023-04-09T03:27:02;51;41;
57289;PMS5003;43523;53.022;-1.178;2023-04-09T03:28:04;48;40;
57289;PMS5003;43523;53.022;-1.178;2023-04-09T03:29:06;49;43;
57289;PMS5003;43523;53.022;-1.178;2023-04-09T03:30:10;48;46;
57289;PMS5003;43523;53.022;-1.178;2023-04-09T03:31:13;54;46;
57289;PMS5003;43523;53.022;-1.178;2023-04-09T03:32:15;44;41;
57289;PMS5003;43523;53.022;-1.178;2023-04-09T03:33:17;48;39;
57289;PMS5003;43523;53.022;-1.178;2023-04-09T03:34:19;40;38;
57289;PMS5003;43523;53.022;-1.178;2023-04-09T03:35:22;45;39;
57289;PMS5003;43523;53.022;-1.178;2023-04-09T03:36:24;41;40;
57289;PMS5003;43523;53.022;-1.178;2023-04-09T03:37:26;52;42;
57289;PMS5003;43523;53.022;-1.178;2023-04-09T03:38:28;48;38;
57289;PMS5003;43523;53.022;-1.178;2023-04-09T03:39:30;50;39;
57289;PMS5003;43523;53.022;-1.178;2023-04-09T03:40:33;46;42;
57289;PMS5003;43523;53.022;-1.178;2023-04-09T03:41:35;52;43;
57289;PMS5003;43523;53.022;-1.178;2023-04-09T03:42:37;56;44;
57289;PMS5003;43523;53.022;-1.178;2023-04-09T03:43:40;45;38;
57289;PMS5003;43523;53.022;-1.178;2023-04-09T03:44:43;54;43;
57289;PMS5003;43523;53.022;-1.178;2023-04-09T03:45:45;50;45;
57289;PMS5003;43523;53.022;-1.178;2023-04-09T03:46:47;48;44;
57289;PMS5003;43523;53.022;-1.178;2023-04-09T03:47:50;48;43;
57289;PMS5003;43523;53.022;-1.178;2023-04-09T03:48:52;46;37;
57289;PMS5003;43523;53.022;-1.178;2023-04-09T03:49:54;46;41;
57289;PMS5003;43523;53.022;-1.178;2023-04-09T03:50:57;54;47;
57289;PMS5003;43523;53.022;-1.178;2023-04-09T03:51:58;50;45;
57289;PMS5003;43523;53.022;-1.178;2023-04-09T03:53:01;52;44;
57289;PMS5003;43523;53.022;-1.178;2023-04-09T03:54:03;47;41;
57289;PMS5003;43523;53.022;-1.178;2023-04-09T03:55:06;51;43;
57289;PMS5003;43523;53.022;-1.178;2023-04-09T03:56:10;49;40;
57289;PMS5003;43523;53.022;-1.178;2023-04-09T03:57:12;49;41;
57289;PMS5003;43523;53.022;-1.178;2023-04-09T03:58:14;55;46;
57289;PMS5003;43523;53.022;-1.178;2023-04-09T03:59:17;41;39;
57289;PMS5003;43523;53.022;-1.178;2023-04-09T04:00:20;48;38;
57289;PMS5003;43523;53.022;-1.178;2023-04-09T04:01:22;52;44;
57289;PMS5003;43523;53.022;-1.178;2023-04-09T04:02:23;54;42;
57289;PMS5003;43523;53.022;-1.178;2023-04-09T04:03:26;44;38;
57289;PMS5003;43523;53.022;-1.178;2023-04-09T04:04:28;47;41;
57289;PMS5003;43523;53.022;-1.178;2023-04-09T04:05:31;48;43;
57289;PMS5003;43523;53.022;-1.178;2023-04-09T04:06:33;48;41;
57289;PMS5003;43523;53.022;-1.178;2023-04-09T04:07:35;46;42;
57289;PMS5003;43523;53.022;-1.178;2023-04-09T04:08:37;50;40;
57289;PMS5003;43523;53.022;-1.178;2023-04-09T04:09:39;49;45;
57289;PMS5003;43523;53.022;-1.178;2023-04-09T04:10:42;48;40;
57289;PMS5003;43523;53.022;-1.178;2023-04-09T04:11:45;42;38;
57289;PMS5003;43523;53.022;-1.178;2023-04-09T04:12:47;41;39;
57289;PMS5003;43523;53.022;-1.178;2023-04-09T04:13:50;42;35;
57289;PMS5003;43523;53.022;-1.178;2023-04-09T04:14:52;45;40;
57289;PMS5003;43523;53.022;-1.178;2023-04-09T04:15:54;43;40;
57289;PMS5003;43523;53.022;-1.178;2023-04-09T04:16:57;53;43;
57289;PMS5003;43523;53.022;-1.178;2023-04-09T04:18:00;49;42;
57289;PMS5003;43523;53.022;-1.178;2023-04-09T04:19:02;45;37;
57289;PMS5003;43523;53.022;-1.178;2023-04-09T04:20:04;52;43;
57289;PMS5003;43523;53.022;-1.178;2023-04-09T04:21:11;49;40;
57289;PMS5003;43523;53.022;-1.178;2023-04-09T04:22:14;53;45;
57289;PMS5003;43523;53.022;-1.178;2023-04-09T04:23:16;61;48;
57289;PMS5003;43523;53.022;-1.178;2023-04-09T04:24:18;58;45;
57289;PMS5003;43523;53.022;-1.178;2023-04-09T04:25:20;55;47;
57289;PMS5003;43523;53.022;-1.178;2023-04-09T04:26:22;58;51;
57289;PMS5003;43523;53.022;-1.178;2023-04-09T04:27:24;53;48;
57289;PMS5003;43523;53.022;-1.178;2023-04-09T04:28:27;67;55;
57289;PMS5003;43523;53.022;-1.178;2023-04-09T04:29:29;57;52;
57289;PMS5003;43523;53.022;-1.178;2023-04-09T04:30:31;61;51;
57289;PMS5003;43523;53.022;-1.178;2023-04-09T04:31:33;66;56;
57289;PMS5003;43523;53.022;-1.178;2023-04-09T04:32:36;65;52;
57289;PMS5003;43523;53.022;-1.178;2023-04-09T04:33:39;69;52;
57289;PMS5003;43523;53.022;-1.178;2023-04-09T04:34:41;68;60;
57289;PMS5003;43523;53.022;-1.178;2023-04-09T04:35:49;67;56;
57289;PMS5003;43523;53.022;-1.178;2023-04-09T04:36:50;68;56;
57289;PMS5003;43523;53.022;-1.178;2023-04-09T04:37:52;66;57;
57289;PMS5003;43523;53.022;-1.178;2023-04-09T04:38:54;66;58;
57289;PMS5003;43523;53.022;-1.178;2023-04-09T04:39:57;65;55;
57289;PMS5003;43523;53.022;-1.178;2023-04-09T04:41:01;55;53;
57289;PMS5003;43523;53.022;-1.178;2023-04-09T04:42:03;69;51;
57289;PMS5003;43523;53.022;-1.178;2023-04-09T04:43:05;62;48;
57289;PMS5003;43523;53.022;-1.178;2023-04-09T04:44:08;63;53;
57289;PMS5003;43523;53.022;-1.178;2023-04-09T04:45:10;65;53;
57289;PMS5003;43523;53.022;-1.178;2023-04-09T04:46:12;63;55;
57289;PMS5003;43523;53.022;-1.178;2023-04-09T04:47:15;62;51;
57289;PMS5003;43523;53.022;-1.178;2023-04-09T04:48:17;57;52;
57289;PMS5003;43523;53.022;-1.178;2023-04-09T04:49:19;57;52;
57289;PMS5003;43523;53.022;-1.178;2023-04-09T04:50:21;59;48;
57289;PMS5003;43523;53.022;-1.178;2023-04-09T04:51:24;63;51;
57289;PMS5003;43523;53.022;-1.178;2023-04-09T04:52:26;58;51;
57289;PMS5003;43523;53.022;-1.178;2023-04-09T04:53:28;62;54;
57289;PMS5003;43523;53.022;-1.178;2023-04-09T04:54:32;60;50;
57289;PMS5003;43523;53.022;-1.178;2023-04-09T04:55:34;62;52;
57289;PMS5003;43523;53.022;-1.178;2023-04-09T04:56:36;66;54;
57289;PMS5003;43523;53.022;-1.178;2023-04-09T04:57:38;61;45;
57289;PMS5003;43523;53.022;-1.178;2023-04-09T04:58:40;60;53;
57289;PMS5003;43523;53.022;-1.178;2023-04-09T04:59:43;59;48;
57289;PMS5003;43523;53.022;-1.178;2023-04-09T05:00:45;64;58;
57289;PMS5003;43523;53.022;-1.178;2023-04-09T05:01:48;63;54;
57289;PMS5003;43523;53.022;-1.178;2023-04-09T05:02:50;56;46;
57289;PMS5003;43523;53.022;-1.178;2023-04-09T05:03:52;63;53;
57289;PMS5003;43523;53.022;-1.178;2023-04-09T05:04:54;65;50;
57289;PMS5003;43523;53.022;-1.178;2023-04-09T05:05:56;59;49;
57289;PMS5003;43523;53.022;-1.178;2023-04-09T05:06:59;70;52;
57289;PMS5003;43523;53.022;-1.178;2023-04-09T05:08:01;69;53;
57289;PMS5003;43523;53.022;-1.178;2023-04-09T05:09:04;61;55;
57289;PMS5003;43523;53.022;-1.178;2023-04-09T05:10:08;65;50;
57289;PMS5003;43523;53.022;-1.178;2023-04-09T05:11:10;62;53;
57289;PMS5003;43523;53.022;-1.178;2023-04-09T05:12:13;61;49;
57289;PMS5003;43523;53.022;-1.178;2023-04-09T05:13:16;66;53;
57289;PMS5003;43523;53.022;-1.178;2023-04-09T05:14:18;64;49;
57289;PMS5003;43523;53.022;-1.178;2023-04-09T05:15:20;56;51;
57289;PMS5003;43523;53.022;-1.178;2023-04-09T05:16:22;62;54;
57289;PMS5003;43523;53.022;-1.178;2023-04-09T05:17:25;69;56;
57289;PMS5003;43523;53.022;-1.178;2023-04-09T05:18:27;48;44;
57289;PMS5003;43523;53.022;-1.178;2023-04-09T05:19:30;56;42;
57289;PMS5003;43523;53.022;-1.178;2023-04-09T05:20:32;60;51;
57289;PMS5003;43523;53.022;-1.178;2023-04-09T05:21:35;60;52;
57289;PMS5003;43523;53.022;-1.178;2023-04-09T05:22:37;58;46;
57289;PMS5003;43523;53.022;-1.178;2023-04-09T05:23:40;62;52;
57289;PMS5003;43523;53.022;-1.178;2023-04-09T05:24:43;57;47;
57289;PMS5003;43523;53.022;-1.178;2023-04-09T05:25:47;63;52;
57289;PMS5003;43523;53.022;-1.178;2023-04-09T05:26:49;62;51;
57289;PMS5003;43523;53.022;-1.178;2023-04-09T05:27:51;65;47;
57289;PMS5003;43523;53.022;-1.178;2023-04-09T05:28:54;60;52;
57289;PMS5003;43523;53.022;-1.178;2023-04-09T05:29:56;67;51;
57289;PMS5003;43523;53.022;-1.178;2023-04-09T05:30:58;63;48;
57289;PMS5003;43523;53.022;-1.178;2023-04-09T05:32:00;71;51;
57289;PMS5003;43523;53.022;-1.178;2023-04-09T05:33:03;55;47;
57289;PMS5003;43523;53.022;-1.178;2023-04-09T05:34:05;54;49;
57289;PMS5003;43523;53.022;-1.178;2023-04-09T05:35:07;57;51;
57289;PMS5003;43523;53.022;-1.178;2023-04-09T05:36:13;58;50;
57289;PMS5003;43523;53.022;-1.178;2023-04-09T05:37:17;56;48;
57289;PMS5003;43523;53.022;-1.178;2023-04-09T05:38:19;66;45;
57289;PMS5003;43523;53.022;-1.178;2023-04-09T05:39:21;67;54;
57289;PMS5003;43523;53.022;-1.178;2023-04-09T05:40:23;65;52;
57289;PMS5003;43523;53.022;-1.178;2023-04-09T05:41:26;62;52;
57289;PMS5003;43523;53.022;-1.178;2023-04-09T05:42:28;56;46;
57289;PMS5003;43523;53.022;-1.178;2023-04-09T05:43:31;65;49;
57289;PMS5003;43523;53.022;-1.178;2023-04-09T05:44:33;63;48;
57289;PMS5003;43523;53.022;-1.178;2023-04-09T05:45:36;72;53;
57289;PMS5003;43523;53.022;-1.178;2023-04-09T05:46:39;67;49;
57289;PMS5003;43523;53.022;-1.178;2023-04-09T05:47:41;65;54;
57289;PMS5003;43523;53.022;-1.178;2023-04-09T05:48:43;66;55;
57289;PMS5003;43523;53.022;-1.178;2023-04-09T05:49:46;61;49;
57289;PMS5003;43523;53.022;-1.178;2023-04-09T05:50:48;56;48;
57289;PMS5003;43523;53.022;-1.178;2023-04-09T05:51:51;55;46;
57289;PMS5003;43523;53.022;-1.178;2023-04-09T05:52:54;60;49;
57289;PMS5003;43523;53.022;-1.178;2023-04-09T05:53:56;53;44;
57289;PMS5003;43523;53.022;-1.178;2023-04-09T05:54:59;61;51;
57289;PMS5003;43523;53.022;-1.178;2023-04-09T05:56:01;56;48;
57289;PMS5003;43523;53.022;-1.178;2023-04-09T05:57:04;71;50;
57289;PMS5003;43523;53.022;-1.178;2023-04-09T05:58:06;60;51;
57289;PMS5003;43523;53.022;-1.178;2023-04-09T05:59:08;62;46;
57289;PMS5003;43523;53.022;-1.178;2023-04-09T06:00:10;61;49;
57289;PMS5003;43523;53.022;-1.178;2023-04-09T06:01:14;60;51;
57289;PMS5003;43523;53.022;-1.178;2023-04-09T06:02:17;59;49;
57289;PMS5003;43523;53.022;-1.178;2023-04-09T06:03:19;57;48;
57289;PMS5003;43523;53.022;-1.178;2023-04-09T06:04:21;63;47;
57289;PMS5003;43523;53.022;-1.178;2023-04-09T06:05:23;49;41;
57289;PMS5003;43523;53.022;-1.178;2023-04-09T06:06:25;69;52;
57289;PMS5003;43523;53.022;-1.178;2023-04-09T06:07:27;59;50;
57289;PMS5003;43523;53.022;-1.178;2023-04-09T06:08:30;55;44;
57289;PMS5003;43523;53.022;-1.178;2023-04-09T06:09:32;62;45;
57289;PMS5003;43523;53.022;-1.178;2023-04-09T06:10:34;53;43;
57289;PMS5003;43523;53.022;-1.178;2023-04-09T06:11:37;58;47;
57289;PMS5003;43523;53.022;-1.178;2023-04-09T06:12:39;64;49;
57289;PMS5003;43523;53.022;-1.178;2023-04-09T06:13:41;50;47;
57289;PMS5003;43523;53.022;-1.178;2023-04-09T06:14:47;56;49;
57289;PMS5003;43523;53.022;-1.178;2023-04-09T06:15:49;52;42;
57289;PMS5003;43523;53.022;-1.178;2023-04-09T06:16:51;62;47;
57289;PMS5003;43523;53.022;-1.178;2023-04-09T06:17:54;56;48;
57289;PMS5003;43523;53.022;-1.178;2023-04-09T06:18:55;57;45;
57289;PMS5003;43523;53.022;-1.178;2023-04-09T06:19:58;56;45;
57289;PMS5003;43523;53.022;-1.178;2023-04-09T06:21:01;55;48;
57289;PMS5003;43523;53.022;-1.178;2023-04-09T06:22:03;64;48;
57289;PMS5003;43523;53.022;-1.178;2023-04-09T06:23:05;62;44;
57289;PMS5003;43523;53.022;-1.178;2023-04-09T06:24:08;54;50;
57289;PMS5003;43523;53.022;-1.178;2023-04-09T06:25:10;55;46;
57289;PMS5003;43523;53.022;-1.178;2023-04-09T06:26:13;59;45;
57289;PMS5003;43523;53.022;-1.178;2023-04-09T06:27:16;57;47;
57289;PMS5003;43523;53.022;-1.178;2023-04-09T06:28:18;55;47;
57289;PMS5003;43523;53.022;-1.178;2023-04-09T06:29:21;54;45;
57289;PMS5003;43523;53.022;-1.178;2023-04-09T06:30:23;57;42;
57289;PMS5003;43523;53.022;-1.178;2023-04-09T06:31:25;56;48;
57289;PMS5003;43523;53.022;-1.178;2023-04-09T06:32:27;57;44;
57289;PMS5003;43523;53.022;-1.178;2023-04-09T06:33:30;60;47;
57289;PMS5003;43523;53.022;-1.178;2023-04-09T06:34:32;57;43;
57289;PMS5003;43523;53.022;-1.178;2023-04-09T06:35:34;49;42;
57289;PMS5003;43523;53.022;-1.178;2023-04-09T06:36:36;54;46;
57289;PMS5003;43523;53.022;-1.178;2023-04-09T06:37:38;54;43;
57289;PMS5003;43523;53.022;-1.178;2023-04-09T06:38:40;56;47;
57289;PMS5003;43523;53.022;-1.178;2023-04-09T06:39:43;61;45;
57289;PMS5003;43523;53.022;-1.178;2023-04-09T06:40:45;60;49;
57289;PMS5003;43523;53.022;-1.178;2023-04-09T06:41:47;50;42;
57289;PMS5003;43523;53.022;-1.178;2023-04-09T06:42:50;51;45;
57289;PMS5003;43523;53.022;-1.178;2023-04-09T06:43:52;60;47;
57289;PMS5003;43523;53.022;-1.178;2023-04-09T06:44:54;62;48;
57289;PMS5003;43523;53.022;-1.178;2023-04-09T06:45:56;65;56;
57289;PMS5003;43523;53.022;-1.178;2023-04-09T06:46:59;61;47;
57289;PMS5003;43523;53.022;-1.178;2023-04-09T06:48:01;57;44;
57289;PMS5003;43523;53.022;-1.178;2023-04-09T06:49:04;56;50;
57289;PMS5003;43523;53.022;-1.178;2023-04-09T06:50:06;56;46;
57289;PMS5003;43523;53.022;-1.178;2023-04-09T06:51:09;55;47;
57289;PMS5003;43523;53.022;-1.178;2023-04-09T06:52:12;62;50;
57289;PMS5003;43523;53.022;-1.178;2023-04-09T06:53:15;55;47;